Time;durP1;ratioP1;P1;durP2;ratioP2;P2;SDS_P1;SDS_P2;PMS_P1;PMS_P2;Temp;Humidity;BMP_temperature;BMP_pressure;BME280_temperature;BME280_humidity;BME280_pressure;Samples;Min_cycle;Max_cycle;Signal;HPM_P1;HPM_P2
2022/10/08 00:00:48;;;;;;;6.70;6.07;;;;;;;10.37;71.04;95661.38;5097298;28;20185;-68
2022/10/08 00:03:16;;;;;;;6.55;5.65;;;;;;;10.34;70.87;95656.53;5097377;28;20192;-68
2022/10/08 00:05:43;;;;;;;7.47;5.70;;;;;;;10.31;70.99;95654.47;5097090;28;20176;-68
2022/10/08 00:08:10;;;;;;;6.45;5.85;;;;;;;10.32;70.99;95656.91;5096326;28;20204;-68
2022/10/08 00:10:37;;;;;;;7.18;6.00;;;;;;;10.29;71.38;95654.81;5096863;28;20180;-68
2022/10/08 00:13:05;;;;;;;6.75;5.55;;;;;;;10.25;71.00;95647.53;5097111;28;20211;-68
2022/10/08 00:15:36;;;;;;;6.30;5.70;;;;;;;10.20;71.09;95647.72;5096642;28;20215;-68
2022/10/08 00:18:02;;;;;;;8.27;5.50;;;;;;;10.16;71.18;95644.81;5096475;28;20273;-68
2022/10/08 00:20:29;;;;;;;6.28;5.75;;;;;;;10.18;71.15;95639.78;5097271;28;20211;-68
2022/10/08 00:22:56;;;;;;;7.00;6.20;;;;;;;10.19;71.22;95643.34;5096023;28;20211;-68
2022/10/08 00:25:23;;;;;;;7.07;6.38;;;;;;;10.17;71.24;95642.88;5097231;28;20250;-68
2022/10/08 00:27:50;;;;;;;7.40;5.80;;;;;;;10.11;70.95;95645.03;5096881;28;20249;-68
2022/10/08 00:30:18;;;;;;;7.15;5.72;;;;;;;10.08;71.54;95640.97;5096860;28;20184;-68
2022/10/08 00:32:45;;;;;;;6.03;5.47;;;;;;;10.10;71.52;95640.66;5096748;28;20192;-68
2022/10/08 00:35:12;;;;;;;6.78;5.85;;;;;;;10.04;71.49;95634.53;5095659;28;20556;-68
2022/10/08 00:37:39;;;;;;;5.75;5.25;;;;;;;9.99;71.55;95626.47;5096508;28;20235;-68
2022/10/08 00:40:06;;;;;;;6.82;6.22;;;;;;;9.98;71.80;95632.31;5096650;28;20199;-68
2022/10/08 00:42:33;;;;;;;7.63;5.93;;;;;;;9.96;71.71;95620.84;5096640;28;20196;-68
2022/10/08 00:45:01;;;;;;;7.72;5.90;;;;;;;9.91;71.57;95630.09;5096763;28;20250;-68
2022/10/08 00:47:42;;;;;;;7.10;6.40;;;;;;;9.90;71.87;95625.72;5096125;28;20177;-68
2022/10/08 00:50:12;;;;;;;6.85;6.22;;;;;;;9.90;71.72;95614.69;5096652;28;20188;-69
2022/10/08 00:52:42;;;;;;;6.63;5.70;;;;;;;9.89;71.89;95622.16;5096212;28;20196;-69
2022/10/08 00:55:09;;;;;;;6.50;5.47;;;;;;;9.93;72.30;95625.06;5095640;28;20254;-69
2022/10/08 00:57:37;;;;;;;6.50;5.90;;;;;;;9.92;72.10;95614.38;5095381;28;20258;-69
2022/10/08 01:00:06;;;;;;;7.15;6.45;;;;;;;9.89;72.10;95613.09;5096177;28;20195;-69
2022/10/08 01:02:33;;;;;;;6.85;6.22;;;;;;;9.86;72.05;95606.28;5095295;28;20196;-69
2022/10/08 01:05:01;;;;;;;5.93;5.13;;;;;;;9.86;72.15;95613.75;5095411;28;20192;-69
2022/10/08 01:07:31;;;;;;;6.05;5.47;;;;;;;9.86;72.23;95611.81;5095495;28;20193;-69
2022/10/08 01:10:03;;;;;;;6.55;5.95;;;;;;;9.86;72.26;95602.75;5095452;28;20296;-69
2022/10/08 01:12:37;;;;;;;7.00;6.05;;;;;;;9.84;71.85;95600.34;5095076;28;20210;-69
2022/10/08 01:15:09;;;;;;;6.47;5.82;;;;;;;9.82;71.88;95596.28;5095252;28;20620;-69
2022/10/08 01:17:42;;;;;;;6.82;6.05;;;;;;;9.80;72.18;95588.38;5095985;28;20180;-68
2022/10/08 01:20:26;;;;;;;6.03;5.43;;;;;;;9.82;72.41;95586.06;5095117;28;20208;-68
2022/10/08 01:23:05;;;;;;;6.25;5.75;;;;;;;9.83;72.25;95582.16;5094884;28;20199;-68
2022/10/08 01:25:37;;;;;;;6.82;6.10;;;;;;;9.81;72.36;95578.97;5095952;28;20187;-68
2022/10/08 01:28:12;;;;;;;6.45;5.85;;;;;;;9.76;72.10;95579.13;5095797;28;20250;-69
2022/10/08 01:30:42;;;;;;;6.85;6.20;;;;;;;9.72;71.90;95574.66;5094448;28;20638;-69
2022/10/08 01:33:14;;;;;;;6.47;5.90;;;;;;;9.69;72.04;95580.81;5095825;28;20209;-69
2022/10/08 01:35:44;;;;;;;6.15;5.65;;;;;;;9.69;72.39;95576.09;5095570;28;20211;-69
2022/10/08 01:38:17;;;;;;;7.40;6.45;;;;;;;9.67;72.37;95566.59;5094365;28;20292;-69
2022/10/08 01:40:45;;;;;;;6.40;5.80;;;;;;;9.63;72.15;95569.22;5094509;28;20528;-69
2022/10/08 01:43:15;;;;;;;6.80;6.20;;;;;;;9.62;72.25;95567.56;5095255;28;20635;-69
2022/10/08 01:45:45;;;;;;;7.03;5.70;;;;;;;9.62;72.25;95565.66;5094648;28;20207;-70
2022/10/08 01:48:14;;;;;;;6.90;6.22;;;;;;;9.57;72.12;95573.28;5094667;28;20208;-70
2022/10/08 01:50:49;;;;;;;6.35;5.75;;;;;;;9.49;71.99;95565.91;5094567;28;20203;-69
2022/10/08 01:53:17;;;;;;;6.65;6.05;;;;;;;9.46;71.91;95564.59;5094093;28;20223;-70
2022/10/08 01:55:46;;;;;;;7.05;6.28;;;;;;;9.45;72.23;95568.50;5094859;28;20223;-69
2022/10/08 01:58:16;;;;;;;7.07;6.38;;;;;;;9.45;71.98;95568.50;5094508;28;20200;-69
2022/10/08 02:00:44;;;;;;;7.20;6.18;;;;;;;9.43;72.22;95568.03;5094106;28;20205;-69
2022/10/08 02:03:11;;;;;;;6.95;6.25;;;;;;;9.44;72.47;95563.31;5095475;28;20196;-69
2022/10/08 02:05:40;;;;;;;7.00;6.40;;;;;;;9.43;72.47;95562.53;5095655;28;20241;-69
2022/10/08 02:08:06;;;;;;;6.70;6.05;;;;;;;9.42;72.57;95565.63;5095454;28;20557;-69
2022/10/08 02:10:33;;;;;;;8.20;6.68;;;;;;;9.43;72.36;95565.28;5095213;28;20245;-69
2022/10/08 02:13:00;;;;;;;7.55;6.40;;;;;;;9.41;72.56;95564.81;5094513;28;20215;-69
2022/10/08 02:15:37;;;;;;;7.22;6.18;;;;;;;9.42;72.55;95573.88;5093967;28;20662;-69
2022/10/08 02:18:09;;;;;;;6.80;6.15;;;;;;;9.36;72.26;95576.81;5095167;28;20196;-69
2022/10/08 02:20:37;;;;;;;6.68;6.10;;;;;;;9.32;72.28;95572.31;5094259;28;20208;-69
2022/10/08 02:23:08;;;;;;;7.60;6.45;;;;;;;9.27;72.11;95575.25;5093924;28;20199;-69
2022/10/08 02:25:41;;;;;;;6.97;6.38;;;;;;;9.21;72.08;95571.06;5095175;28;20188;-69
2022/10/08 02:28:12;;;;;;;7.60;6.57;;;;;;;9.18;72.37;95569.78;5094534;28;20181;-69
2022/10/08 02:30:43;;;;;;;6.63;6.03;;;;;;;9.19;72.53;95565.91;5094018;28;20193;-69
2022/10/08 02:33:12;;;;;;;6.90;6.25;;;;;;;9.18;72.29;95569.78;5094104;28;20192;-69
2022/10/08 02:35:44;;;;;;;8.23;7.07;;;;;;;9.15;72.31;95568.53;5093914;28;20592;-69
2022/10/08 02:38:14;;;;;;;8.88;6.80;;;;;;;9.13;72.38;95575.47;5093685;28;20682;-69
2022/10/08 02:40:43;;;;;;;7.97;7.10;;;;;;;9.11;72.45;95569.50;5094967;28;20188;-69
2022/10/08 02:43:14;;;;;;;9.90;7.15;;;;;;;9.06;72.36;95567.75;5094792;28;20536;-69
2022/10/08 02:45:45;;;;;;;8.35;7.47;;;;;;;9.03;72.29;95568.41;5094298;28;20295;-69
2022/10/08 02:48:16;;;;;;;9.48;6.93;;;;;;;9.03;72.51;95567.59;5095045;28;20189;-69
2022/10/08 02:50:44;;;;;;;9.48;7.38;;;;;;;9.01;72.55;95569.88;5094604;28;20189;-69
2022/10/08 02:53:13;;;;;;;7.65;6.85;;;;;;;9.00;72.52;95565.50;5094306;28;20246;-69
2022/10/08 02:55:45;;;;;;;10.52;7.10;;;;;;;9.02;72.62;95566.00;5093998;28;20242;-68
2022/10/08 02:58:12;;;;;;;8.50;7.07;;;;;;;9.05;72.97;95560.63;5094796;28;20196;-68
2022/10/08 03:00:41;;;;;;;7.28;6.57;;;;;;;9.03;72.86;95568.41;5094782;28;20192;-68
2022/10/08 03:03:12;;;;;;;8.10;7.18;;;;;;;8.97;72.97;95564.25;5095489;28;20199;-68
2022/10/08 03:05:40;;;;;;;9.48;6.93;;;;;;;8.92;72.63;95567.97;5097893;28;20596;-68
2022/10/08 03:08:08;;;;;;;8.10;7.30;;;;;;;8.87;72.75;95570.09;5098509;28;20280;-68
2022/10/08 03:10:37;;;;;;;8.45;7.20;;;;;;;8.82;72.59;95562.84;5098108;28;20188;-68
2022/10/08 03:13:04;;;;;;;7.90;7.10;;;;;;;8.82;72.94;95562.00;5098975;28;20185;-68
2022/10/08 03:15:32;;;;;;;8.77;7.20;;;;;;;8.81;72.53;95565.91;5097640;28;20245;-68
2022/10/08 03:17:59;;;;;;;8.20;7.40;;;;;;;8.85;72.74;95566.88;5097125;28;20640;-68
2022/10/08 03:20:29;;;;;;;9.32;7.38;;;;;;;8.85;72.34;95566.88;5098534;28;20214;-68
2022/10/08 03:22:58;;;;;;;9.05;7.47;;;;;;;8.85;72.89;95567.66;5098053;28;20180;-69
2022/10/08 03:25:25;;;;;;;10.20;7.22;;;;;;;8.87;72.88;95565.41;5098006;28;20180;-69
2022/10/08 03:27:52;;;;;;;8.10;7.30;;;;;;;8.86;72.98;95554.72;5097409;28;20230;-69
2022/10/08 03:30:19;;;;;;;8.02;6.97;;;;;;;8.85;72.65;95556.66;5097153;28;20193;-69
2022/10/08 03:32:45;;;;;;;9.98;7.75;;;;;;;8.85;73.00;95555.84;5097630;28;20226;-69
2022/10/08 03:35:12;;;;;;;9.40;8.18;;;;;;;8.84;73.37;95557.81;5097256;28;20204;-69
2022/10/08 03:37:40;;;;;;;8.55;7.65;;;;;;;8.80;73.22;95565.09;5096750;28;20227;-69
2022/10/08 03:40:09;;;;;;;9.35;8.07;;;;;;;8.79;73.07;95562.69;5098051;28;20187;-68
2022/10/08 03:42:35;;;;;;;9.60;8.00;;;;;;;8.75;72.91;95557.06;5097917;28;20196;-69
2022/10/08 03:45:04;;;;;;;9.73;8.18;;;;;;;8.74;72.82;95557.34;5096828;28;20192;-69
2022/10/08 03:47:30;;;;;;;9.48;8.20;;;;;;;8.74;73.01;95563.66;5097229;28;20204;-69
2022/10/08 03:49:57;;;;;;;8.98;8.13;;;;;;;8.76;73.25;95555.09;5097666;28;20191;-69
2022/10/08 03:52:25;;;;;;;8.32;7.50;;;;;;;8.74;73.10;95557.34;5097641;28;20196;-68
2022/10/08 03:54:53;;;;;;;9.80;8.90;;;;;;;8.73;73.11;95553.00;5096527;28;20204;-68
2022/10/08 03:57:20;;;;;;;9.40;8.40;;;;;;;8.70;73.21;95554.47;5096585;28;20227;-68
2022/10/08 03:59:47;;;;;;;11.43;8.90;;;;;;;8.69;73.08;95558.34;5097562;28;20200;-69
2022/10/08 04:02:14;;;;;;;8.88;8.00;;;;;;;8.69;73.36;95552.84;5096524;28;20199;-68
2022/10/08 04:04:40;;;;;;;9.52;7.95;;;;;;;8.70;73.07;95548.16;5096423;28;20200;-68
2022/10/08 04:07:07;;;;;;;9.90;8.57;;;;;;;8.68;73.20;95554.00;5096315;28;20548;-68
2022/10/08 04:09:34;;;;;;;12.07;8.70;;;;;;;8.63;72.83;95548.66;5097200;28;20197;-68
2022/10/08 04:12:02;;;;;;;10.45;8.13;;;;;;;8.60;72.77;95555.63;5096655;28;20220;-69
2022/10/08 04:14:32;;;;;;;12.10;9.30;;;;;;;8.62;72.99;95552.56;5096051;28;20589;-69
2022/10/08 04:16:59;;;;;;;12.00;8.48;;;;;;;8.63;73.20;95552.22;5096831;28;20236;-68
2022/10/08 04:19:25;;;;;;;10.50;9.10;;;;;;;8.61;73.04;95549.00;5096414;28;20199;-69
2022/10/08 04:21:52;;;;;;;12.23;9.60;;;;;;;8.57;72.83;95553.56;5096803;28;20185;-70
2022/10/08 04:24:19;;;;;;;11.45;8.90;;;;;;;8.53;72.64;95569.06;5097087;28;20199;-70
2022/10/08 04:26:45;;;;;;;14.07;8.45;;;;;;;8.50;72.90;95557.94;5096955;28;20188;-70
2022/10/08 04:29:14;;;;;;;10.07;8.88;;;;;;;8.53;72.83;95560.00;5096638;28;20181;-70
2022/10/08 04:31:41;;;;;;;14.85;9.70;;;;;;;8.50;72.79;95553.25;5096831;28;20196;-67
2022/10/08 04:34:09;;;;;;;10.65;9.27;;;;;;;8.51;73.30;95554.06;5096491;28;20188;-67
2022/10/08 04:36:38;;;;;;;12.48;9.80;;;;;;;8.52;72.98;95550.97;5096296;28;20255;-67
2022/10/08 04:39:04;;;;;;;9.82;8.43;;;;;;;8.52;73.21;95553.72;5095967;28;20208;-70
2022/10/08 04:41:31;;;;;;;12.15;9.00;;;;;;;8.51;73.00;95552.09;5096161;28;20524;-70
2022/10/08 04:44:00;;;;;;;13.10;9.40;;;;;;;8.47;73.07;95550.34;5096686;28;20192;-70
2022/10/08 04:46:28;;;;;;;10.27;9.18;;;;;;;8.40;72.85;95556.34;5095769;28;20200;-70
2022/10/08 04:48:56;;;;;;;12.75;10.18;;;;;;;8.38;73.08;95555.84;5097190;28;20246;-70
2022/10/08 04:51:25;;;;;;;13.93;9.48;;;;;;;8.41;73.24;95560.69;5096248;28;20184;-70
2022/10/08 04:53:52;;;;;;;10.23;9.20;;;;;;;8.43;73.38;95558.44;5096014;28;20192;-70
2022/10/08 04:56:20;;;;;;;12.68;8.75;;;;;;;8.47;73.31;95564.88;5095460;28;20200;-70
2022/10/08 04:58:47;;;;;;;10.13;8.20;;;;;;;8.48;73.43;95565.69;5095376;28;20605;-70
2022/10/08 05:01:16;;;;;;;9.35;8.43;;;;;;;8.50;73.22;95563.44;5096039;28;20658;-70
2022/10/08 05:03:46;;;;;;;11.20;8.57;;;;;;;8.53;73.75;95565.50;5095408;28;20199;-69
2022/10/08 05:06:15;;;;;;;13.18;9.23;;;;;;;8.54;73.63;95562.44;5096277;28;20184;-69
2022/10/08 05:08:42;;;;;;;11.90;9.40;;;;;;;8.55;73.54;95561.31;5096278;28;20234;-70
2022/10/08 05:11:09;;;;;;;11.68;9.68;;;;;;;8.55;73.47;95566.81;5096363;28;20185;-70
2022/10/08 05:13:36;;;;;;;14.30;10.57;;;;;;;8.54;73.35;95567.94;5095539;28;20587;-67
2022/10/08 05:16:04;;;;;;;13.43;10.52;;;;;;;8.54;73.38;95559.69;5095019;28;20203;-67
2022/10/08 05:18:31;;;;;;;12.77;10.10;;;;;;;8.55;73.62;95561.31;5095501;28;20216;-67
2022/10/08 05:21:02;;;;;;;12.40;10.05;;;;;;;8.54;73.53;95565.19;5096386;28;20200;-67
2022/10/08 05:23:29;;;;;;;12.50;9.57;;;;;;;8.55;73.57;95563.25;5095225;28;20566;-67
2022/10/08 05:25:55;;;;;;;11.68;9.63;;;;;;;8.59;73.74;95561.47;5094823;28;20192;-67
2022/10/08 05:28:22;;;;;;;12.63;9.57;;;;;;;8.62;73.93;95560.81;5094809;28;20608;-67
2022/10/08 05:30:49;;;;;;;15.45;10.68;;;;;;;8.68;74.04;95565.81;5094701;28;20199;-67
2022/10/08 05:33:15;;;;;;;15.93;11.07;;;;;;;8.68;74.03;95567.75;5095413;28;20640;-67
2022/10/08 05:35:42;;;;;;;15.10;11.07;;;;;;;8.72;74.13;95567.91;5095749;28;20180;-67
2022/10/08 05:38:11;;;;;;;15.20;10.82;;;;;;;8.75;74.41;95570.81;5095308;28;20243;-67
2022/10/08 05:40:38;;;;;;;14.38;10.32;;;;;;;8.82;74.78;95571.09;5094693;28;20200;-67
2022/10/08 05:43:04;;;;;;;15.23;11.50;;;;;;;8.85;74.71;95567.66;5094709;28;20219;-67
2022/10/08 05:45:33;;;;;;;15.32;11.77;;;;;;;8.90;74.47;95575.75;5095258;28;20189;-67
2022/10/08 05:48:00;;;;;;;15.15;11.15;;;;;;;8.98;74.63;95567.78;5095726;28;20181;-67
2022/10/08 05:50:27;;;;;;;16.23;12.38;;;;;;;9.03;74.92;95570.34;5095194;28;20199;-67
2022/10/08 05:52:54;;;;;;;14.43;11.45;;;;;;;9.08;74.76;95567.44;5094642;28;20195;-66
2022/10/08 05:55:22;;;;;;;13.93;11.48;;;;;;;9.16;74.83;95566.56;5095587;28;20191;-67
2022/10/08 05:57:48;;;;;;;14.10;11.75;;;;;;;9.22;74.75;95559.72;5095944;28;20208;-69
2022/10/08 06:00:15;;;;;;;14.50;11.60;;;;;;;9.30;74.80;95563.59;5095138;28;20188;-69
2022/10/08 06:02:42;;;;;;;16.48;11.65;;;;;;;9.38;74.76;95560.78;5095141;28;20191;-69
2022/10/08 06:05:09;;;;;;;15.48;11.40;;;;;;;9.46;74.76;95561.06;5095641;28;20253;-69
2022/10/08 06:07:36;;;;;;;12.35;10.65;;;;;;;9.54;74.56;95562.94;5095373;28;20180;-69
2022/10/08 06:10:03;;;;;;;13.82;9.63;;;;;;;9.62;74.88;95562.91;5095105;28;20188;-69
2022/10/08 06:12:32;;;;;;;9.63;8.75;;;;;;;9.72;75.10;95569.13;5094727;28;20223;-69
2022/10/08 06:14:58;;;;;;;9.07;8.13;;;;;;;9.80;74.84;95562.75;5095288;28;20189;-69
2022/10/08 06:17:25;;;;;;;9.57;8.65;;;;;;;9.90;74.71;95559.59;5094419;28;20216;-69
2022/10/08 06:19:52;;;;;;;10.00;8.88;;;;;;;9.98;74.86;95563.41;5095689;28;20203;-69
2022/10/08 06:22:19;;;;;;;9.38;8.48;;;;;;;10.05;74.65;95566.44;5094859;28;20207;-69
2022/10/08 06:24:46;;;;;;;10.15;8.65;;;;;;;10.11;74.52;95565.09;5077014;28;20212;-69
2022/10/08 06:27:12;;;;;;;10.48;9.13;;;;;;;10.16;74.34;95564.88;5094203;28;20196;-69
2022/10/08 06:29:40;;;;;;;13.32;9.70;;;;;;;10.24;74.36;95571.44;5094026;28;20594;-69
2022/10/08 06:32:07;;;;;;;10.43;9.00;;;;;;;10.32;74.38;95567.88;5094838;28;20242;-69
2022/10/08 06:34:34;;;;;;;12.10;8.63;;;;;;;10.38;74.12;95563.72;5095092;28;20216;-69
2022/10/08 06:37:01;;;;;;;11.80;8.27;;;;;;;10.46;73.81;95570.31;5093773;28;20228;-69
2022/10/08 06:39:27;;;;;;;10.35;8.25;;;;;;;10.52;73.90;95563.44;5097869;28;20526;-69
2022/10/08 06:41:54;;;;;;;10.95;8.80;;;;;;;10.57;74.06;95563.22;5098362;28;20211;-69
2022/10/08 06:44:21;;;;;;;12.25;11.05;;;;;;;10.65;73.86;95564.28;5099023;28;20261;-69
2022/10/08 06:46:49;;;;;;;14.63;10.85;;;;;;;10.72;73.73;95564.53;5097943;28;20203;-69
2022/10/08 06:49:18;;;;;;;14.27;12.88;;;;;;;10.80;73.97;95556.16;5098982;28;20196;-69
2022/10/08 06:51:45;;;;;;;15.60;14.18;;;;;;;10.89;73.89;95556.03;5099060;28;20180;-69
2022/10/08 06:54:11;;;;;;;13.95;12.55;;;;;;;10.96;73.58;95561.78;5097949;28;20200;-69
2022/10/08 06:56:38;;;;;;;14.25;12.68;;;;;;;11.05;73.69;95561.69;5097735;28;20204;-69
2022/10/08 06:59:06;;;;;;;13.38;11.98;;;;;;;11.15;73.76;95561.25;5098913;28;20223;-69
2022/10/08 07:01:33;;;;;;;15.18;13.50;;;;;;;11.22;73.09;95561.50;5098473;28;20230;-69
2022/10/08 07:04:02;;;;;;;20.50;18.23;;;;;;;11.32;73.07;95563.75;5097704;28;20287;-69
2022/10/08 07:06:29;;;;;;;20.98;18.77;;;;;;;11.44;73.13;95557.44;5097550;28;20219;-69
2022/10/08 07:08:58;;;;;;;22.50;19.58;;;;;;;11.62;73.05;95569.06;5098436;28;20184;-69
2022/10/08 07:11:26;;;;;;;22.00;19.75;;;;;;;11.76;73.03;95563.13;5097772;28;20192;-69
2022/10/08 07:13:54;;;;;;;29.13;26.48;;;;;;;11.88;72.45;95560.41;5098379;28;20196;-69
2022/10/08 07:16:22;;;;;;;27.80;25.00;;;;;;;12.00;72.38;95552.06;5098297;28;20188;-69
2022/10/08 07:18:50;;;;;;;28.00;23.27;;;;;;;12.09;72.68;95559.41;5097181;28;20216;-69
2022/10/08 07:21:20;;;;;;;22.80;20.50;;;;;;;12.17;71.54;95559.28;5098359;28;20184;-69
2022/10/08 07:23:47;;;;;;;21.98;18.30;;;;;;;12.21;72.15;95549.13;5097553;28;20211;-69
2022/10/08 07:26:15;;;;;;;19.67;17.77;;;;;;;12.31;71.97;95552.53;5097795;28;20193;-68
2022/10/08 07:28:44;;;;;;;23.60;17.83;;;;;;;12.39;71.69;95554.34;5096855;28;20196;-67
2022/10/08 07:31:14;;;;;;;19.00;16.52;;;;;;;12.51;71.43;95555.09;5098118;28;20264;-67
2022/10/08 07:33:41;;;;;;;18.88;16.77;;;;;;;12.59;69.80;95550.53;5098059;28;20212;-68
2022/10/08 07:36:09;;;;;;;18.70;16.83;;;;;;;12.59;69.73;95547.78;5097919;28;20187;-67
2022/10/08 07:38:37;;;;;;;17.02;15.43;;;;;;;12.69;71.08;95555.56;5097227;28;20233;-68
2022/10/08 07:41:04;;;;;;;20.08;15.07;;;;;;;12.82;69.91;95547.19;5096998;28;20192;-71
2022/10/08 07:43:31;;;;;;;16.58;14.98;;;;;;;12.91;69.55;95548.63;5097567;28;20546;-67
2022/10/08 07:45:58;;;;;;;16.40;14.77;;;;;;;13.00;68.91;95549.28;5096564;28;20200;-67
2022/10/08 07:48:24;;;;;;;16.83;14.88;;;;;;;13.08;68.83;95538.38;5097783;28;20189;-68
2022/10/08 07:50:51;;;;;;;15.65;14.05;;;;;;;13.17;67.69;95538.97;5095837;28;20212;-68
2022/10/08 07:53:18;;;;;;;15.15;13.65;;;;;;;13.20;67.42;95541.84;5097720;28;20257;-68
2022/10/08 07:55:46;;;;;;;15.63;14.05;;;;;;;13.30;68.02;95535.00;5096630;28;20196;-68
2022/10/08 07:58:13;;;;;;;16.58;13.63;;;;;;;13.38;67.38;95534.00;5096489;28;20208;-68
2022/10/08 08:00:40;;;;;;;15.88;14.13;;;;;;;13.45;67.09;95530.59;5096506;28;20571;-68
2022/10/08 08:03:12;;;;;;;14.90;13.40;;;;;;;13.61;68.44;95527.78;5097442;28;20253;-68
2022/10/08 08:05:39;;;;;;;18.42;13.85;;;;;;;13.79;68.45;95528.19;5097382;28;20196;-67
2022/10/08 08:08:06;;;;;;;15.85;14.15;;;;;;;13.97;67.31;95523.81;5096568;28;20192;-67
2022/10/08 08:10:33;;;;;;;15.88;14.07;;;;;;;14.11;67.86;95521.34;5096541;28;20208;-67
2022/10/08 08:13:01;;;;;;;15.48;13.48;;;;;;;14.20;66.01;95519.19;5097235;28;20185;-67
2022/10/08 08:15:28;;;;;;;14.68;12.43;;;;;;;14.33;64.94;95525.38;5097332;28;20184;-67
2022/10/08 08:17:54;;;;;;;16.23;12.75;;;;;;;14.47;64.94;95518.50;5096531;28;20224;-67
2022/10/08 08:20:21;;;;;;;15.70;12.88;;;;;;;14.61;65.30;95522.38;5095921;28;20192;-67
2022/10/08 08:22:48;;;;;;;13.90;11.35;;;;;;;14.73;63.36;95517.81;5096616;28;20218;-67
2022/10/08 08:25:15;;;;;;;11.55;10.52;;;;;;;14.90;64.17;95514.56;5097254;28;20506;-67
2022/10/08 08:27:42;;;;;;;13.68;11.25;;;;;;;15.07;62.19;95527.16;5095956;28;20200;-67
2022/10/08 08:30:13;;;;;;;11.52;10.35;;;;;;;15.15;62.63;95515.00;5096921;28;20250;-67
2022/10/08 08:32:40;;;;;;;12.18;9.65;;;;;;;15.24;61.83;95517.50;5095540;28;20234;-67
2022/10/08 08:35:07;;;;;;;11.05;9.93;;;;;;;15.40;62.56;95512.63;5095885;28;20246;-67
2022/10/08 08:37:34;;;;;;;12.10;9.68;;;;;;;15.52;60.98;95508.84;5095813;28;20676;-67
2022/10/08 08:40:01;;;;;;;10.00;9.00;;;;;;;15.58;60.90;95513.69;5096931;28;20196;-68
2022/10/08 08:42:39;;;;;;;10.40;9.30;;;;;;;15.68;60.29;95503.94;5095991;28;20208;-68
2022/10/08 08:45:21;;;;;;;11.90;9.55;;;;;;;15.81;60.75;95505.31;5097020;28;20188;-68
2022/10/08 08:47:56;;;;;;;9.73;8.75;;;;;;;15.94;59.41;95493.94;5096174;28;20199;-68
2022/10/08 08:50:26;;;;;;;10.60;9.50;;;;;;;15.99;59.52;95488.06;5096527;28;20241;-68
2022/10/08 08:52:53;;;;;;;10.68;9.65;;;;;;;16.01;58.00;95486.53;5095626;28;20204;-68
2022/10/08 08:55:27;;;;;;;13.15;9.93;;;;;;;15.99;58.36;95499.19;5096194;28;20192;-68
2022/10/08 08:57:57;;;;;;;11.77;9.90;;;;;;;16.03;59.31;95494.47;5096452;28;20180;-68
2022/10/08 09:00:30;;;;;;;20.60;14.85;;;;;;;16.18;59.36;95489.91;5095504;28;20615;-68
2022/10/08 09:03:00;;;;;;;13.50;10.90;;;;;;;16.26;57.78;95488.78;5096151;28;20176;-67
2022/10/08 09:05:29;;;;;;;11.50;10.30;;;;;;;16.36;58.14;95483.34;5095564;28;20258;-68
2022/10/08 09:07:59;;;;;;;11.63;9.70;;;;;;;16.38;58.38;95488.56;5095075;28;20215;-67
2022/10/08 09:10:39;;;;;;;10.98;9.80;;;;;;;16.46;57.98;95481.88;5096137;28;20185;-68
2022/10/08 09:13:12;;;;;;;16.08;13.75;;;;;;;16.69;58.22;95480.91;5096107;28;20188;-68
2022/10/08 09:15:41;;;;;;;13.85;12.45;;;;;;;16.91;56.35;95482.75;5096252;28;20200;-68
2022/10/08 09:18:12;;;;;;;12.63;11.32;;;;;;;17.02;55.74;95468.91;5095939;28;20208;-68
2022/10/08 09:20:39;;;;;;;12.13;10.85;;;;;;;17.17;56.19;95467.84;5095045;28;20261;-68
2022/10/08 09:23:13;;;;;;;10.40;9.30;;;;;;;17.26;55.32;95459.97;5095804;28;20626;-68
2022/10/08 09:25:41;;;;;;;10.25;9.13;;;;;;;17.29;55.16;95463.97;5094861;28;20613;-68
2022/10/08 09:28:08;;;;;;;11.15;9.95;;;;;;;17.31;54.41;95461.59;5094739;28;20209;-68
2022/10/08 09:30:37;;;;;;;9.70;8.75;;;;;;;17.32;53.83;95464.00;5095696;28;20199;-68
2022/10/08 09:33:20;;;;;;;9.57;8.27;;;;;;;17.43;53.69;95460.47;5095928;28;20188;-68
2022/10/08 09:35:48;;;;;;;9.20;8.38;;;;;;;17.57;53.97;95455.00;5095890;28;20275;-69
2022/10/08 09:38:20;;;;;;;9.48;8.57;;;;;;;17.67;53.43;95454.25;5094575;28;20240;-68
2022/10/08 09:40:59;;;;;;;8.85;7.82;;;;;;;17.80;53.34;95446.41;5095547;28;20184;-68
2022/10/08 09:43:29;;;;;;;8.38;7.45;;;;;;;17.96;53.47;95448.88;5095586;28;20184;-68
2022/10/08 09:45:56;;;;;;;9.18;8.02;;;;;;;18.05;52.61;95443.75;5094916;28;20204;-68
2022/10/08 09:48:26;;;;;;;8.45;7.43;;;;;;;18.08;52.04;95436.56;5095613;28;20196;-67
2022/10/08 09:51:04;;;;;;;6.75;6.15;;;;;;;18.17;51.27;95435.00;5094511;28;20204;-68
2022/10/08 09:53:39;;;;;;;8.48;7.38;;;;;;;18.23;49.28;95439.03;5094863;28;20207;-68
2022/10/08 09:56:07;;;;;;;9.13;8.15;;;;;;;18.31;50.23;95434.25;5094737;28;20184;-68
2022/10/08 09:58:38;;;;;;;8.32;6.85;;;;;;;18.27;49.82;95431.47;5095263;28;20207;-68
2022/10/08 10:01:07;;;;;;;8.05;7.03;;;;;;;18.28;50.38;95426.66;5095555;28;20189;-68
2022/10/08 10:03:40;;;;;;;7.57;6.80;;;;;;;18.36;51.23;95422.69;5094787;28;20211;-68
2022/10/08 10:06:06;;;;;;;7.25;6.55;;;;;;;18.50;50.22;95419.94;5094268;28;20188;-68
2022/10/08 10:08:59;;;;;;;6.50;5.90;;;;;;;18.71;49.54;95422.00;5093991;28;20192;-68
2022/10/08 10:11:30;;;;;;;7.55;5.80;;;;;;;18.86;49.29;95419.25;5076004;28;20204;-68
2022/10/08 10:13:57;;;;;;;8.25;6.25;;;;;;;18.89;47.89;95407.25;5097131;28;20180;-68
2022/10/08 10:16:26;;;;;;;6.47;5.90;;;;;;;18.94;47.62;95404.06;5099474;28;20180;-68
2022/10/08 10:18:57;;;;;;;5.80;5.30;;;;;;;18.97;47.72;95403.28;5098900;28;20558;-68
2022/10/08 10:21:30;;;;;;;5.57;5.07;;;;;;;19.04;47.23;95397.69;5098101;28;20196;-68
2022/10/08 10:24:05;;;;;;;5.50;5.00;;;;;;;19.08;47.08;95395.69;5099496;28;20195;-68
2022/10/08 10:26:35;;;;;;;7.28;5.18;;;;;;;19.16;46.59;95388.88;5098247;28;20204;-68
2022/10/08 10:29:08;;;;;;;6.22;4.90;;;;;;;19.23;45.74;95385.28;5098801;28;20192;-68
2022/10/08 10:31:38;;;;;;;5.10;4.60;;;;;;;19.27;45.16;95388.06;5098378;28;20287;-68
2022/10/08 10:34:10;;;;;;;4.93;4.55;;;;;;;19.31;45.84;95380.47;5098150;28;20192;-68
2022/10/08 10:36:42;;;;;;;6.13;4.68;;;;;;;19.37;45.45;95385.25;5098836;28;20590;-68
2022/10/08 10:39:17;;;;;;;5.20;4.70;;;;;;;19.40;43.95;95376.06;5099150;28;20545;-68
2022/10/08 10:41:48;;;;;;;4.88;4.40;;;;;;;19.46;44.03;95380.06;5099006;28;20191;-68
2022/10/08 10:44:16;;;;;;;4.97;4.50;;;;;;;19.55;45.40;95365.63;5098973;28;20188;-68
2022/10/08 10:46:45;;;;;;;5.03;4.63;;;;;;;19.68;45.65;95360.41;5097934;28;20210;-68
2022/10/08 10:49:15;;;;;;;5.03;4.40;;;;;;;19.79;44.62;95358.41;5098795;28;20180;-68
2022/10/08 10:51:58;;;;;;;5.55;4.60;;;;;;;19.87;44.94;95356.38;5098728;28;20184;-68
2022/10/08 10:54:40;;;;;;;5.40;4.78;;;;;;;19.96;45.04;95345.53;5098240;28;20189;-68
2022/10/08 10:57:11;;;;;;;6.07;4.85;;;;;;;20.00;44.61;95345.50;5097811;28;20219;-68
2022/10/08 10:59:46;;;;;;;4.35;3.92;;;;;;;20.03;43.09;95339.88;5098591;28;20212;-68
2022/10/08 11:02:19;;;;;;;4.45;4.15;;;;;;;20.06;44.49;95343.88;5098662;28;20221;-68
2022/10/08 11:04:55;;;;;;;6.15;5.30;;;;;;;20.00;42.73;95329.50;5098227;28;20184;-67
2022/10/08 11:07:36;;;;;;;5.15;4.63;;;;;;;19.99;43.51;95329.91;5098462;28;20181;-68
2022/10/08 11:10:09;;;;;;;4.45;4.05;;;;;;;19.96;42.98;95326.72;5097326;28;20207;-68
2022/10/08 11:12:42;;;;;;;5.57;4.20;;;;;;;19.92;43.76;95316.75;5098141;28;20596;-68
2022/10/08 11:15:22;;;;;;;4.50;4.10;;;;;;;19.93;43.12;95318.34;5097245;28;20200;-68
2022/10/08 11:18:12;;;;;;;4.80;4.40;;;;;;;19.96;43.77;95311.94;5097206;28;20246;-68
2022/10/08 11:20:47;;;;;;;4.70;4.30;;;;;;;19.95;43.46;95311.13;5097290;28;20228;-68
2022/10/08 11:23:31;;;;;;;6.55;4.32;;;;;;;19.97;42.98;95310.72;5097938;28;20180;-67
2022/10/08 11:26:00;;;;;;;4.82;4.43;;;;;;;19.99;43.49;95310.31;5096850;28;20188;-68
2022/10/08 11:28:35;;;;;;;4.45;4.00;;;;;;;19.90;42.12;95307.97;5097993;28;20505;-68
2022/10/08 11:31:07;;;;;;;6.18;3.90;;;;;;;19.89;42.72;95300.78;5097331;28;20191;-70
2022/10/08 11:33:35;;;;;;;4.53;3.90;;;;;;;19.87;43.33;95300.41;5097227;28;20207;-72
2022/10/08 11:36:20;;;;;;;4.88;4.05;;;;;;;19.90;43.24;95294.00;5097865;28;20197;-68
2022/10/08 11:38:50;;;;;;;4.93;4.13;;;;;;;19.93;41.72;95293.16;5097584;28;20184;-68
2022/10/08 11:41:23;;;;;;;4.97;3.80;;;;;;;19.89;42.82;95286.78;5096913;28;20196;-67